Time;durP1;ratioP1;P1;durP2;ratioP2;P2;SDS_P1;SDS_P2;PMS_P1;PMS_P2;Temp;Humidity;BMP_temperature;BMP_pressure;BME280_temperature;BME280_humidity;BME280_pressure;Samples;Min_cycle;Max_cycle;Signal;HPM_P1;HPM_P2
2023/09/30 00:02:27;;;;;;;15.55;8.93;;;;;;;22.33;53.65;102564.53;4991070;28;20049;-43
2023/09/30 00:04:54;;;;;;;16.60;9.02;;;;;;;22.32;53.46;102566.41;4983128;28;20061;-43
2023/09/30 00:07:21;;;;;;;14.25;8.23;;;;;;;22.30;53.45;102564.81;4981097;28;20051;-43
2023/09/30 00:09:49;;;;;;;13.45;8.70;;;;;;;22.29;53.71;102568.53;4982672;28;20054;-42
2023/09/30 00:12:15;;;;;;;16.60;8.95;;;;;;;22.28;53.68;102577.63;4984143;28;20378;-43
2023/09/30 00:14:42;;;;;;;14.05;8.73;;;;;;;22.26;53.83;102577.75;4985440;28;20121;-43
2023/09/30 00:17:09;;;;;;;13.75;8.93;;;;;;;22.25;53.38;102575.19;4984614;28;20117;-43
2023/09/30 00:19:35;;;;;;;16.92;9.90;;;;;;;22.24;53.43;102576.19;4982502;28;20101;-43
2023/09/30 00:22:02;;;;;;;13.20;7.75;;;;;;;22.22;53.75;102575.47;4988685;28;20437;-43
2023/09/30 00:24:29;;;;;;;14.27;8.32;;;;;;;22.21;53.97;102576.47;4986688;28;20110;-42
2023/09/30 00:26:56;;;;;;;13.60;8.98;;;;;;;22.19;53.57;102568.50;4984925;28;20058;-43
2023/09/30 00:29:23;;;;;;;13.45;8.48;;;;;;;22.18;53.91;102583.00;4983512;28;20320;-43
2023/09/30 00:31:49;;;;;;;12.57;8.13;;;;;;;22.17;53.83;102581.28;4982760;28;20042;-43
2023/09/30 00:34:16;;;;;;;13.85;8.30;;;;;;;22.16;53.08;102590.41;4986816;28;20157;-43
2023/09/30 00:36:42;;;;;;;14.02;8.02;;;;;;;22.15;53.64;102592.25;4988284;28;20058;-43
2023/09/30 00:39:09;;;;;;;13.10;7.68;;;;;;;22.14;53.68;102586.97;4986306;28;20061;-43
2023/09/30 00:41:39;;;;;;;14.25;7.53;;;;;;;22.13;53.73;102590.66;4984667;28;20105;-42
2023/09/30 00:44:05;;;;;;;10.65;7.57;;;;;;;22.10;53.79;102597.16;4985954;28;20332;-42
2023/09/30 00:46:35;;;;;;;13.63;7.93;;;;;;;22.09;53.63;102600.84;4985177;28;20046;-43
2023/09/30 00:49:02;;;;;;;13.00;8.23;;;;;;;22.09;53.92;102603.56;4983062;28;20054;-42
2023/09/30 00:51:30;;;;;;;11.50;7.25;;;;;;;22.07;54.00;102602.84;4985139;28;20423;-42
2023/09/30 00:53:59;;;;;;;12.88;7.72;;;;;;;22.06;53.77;102594.88;4988971;28;20050;-43
2023/09/30 00:56:29;;;;;;;12.35;7.55;;;;;;;22.05;53.81;102598.56;4989228;28;20050;-43
2023/09/30 00:58:56;;;;;;;12.50;7.35;;;;;;;22.04;53.78;102599.56;4982708;28;20132;-43
2023/09/30 01:01:23;;;;;;;10.88;7.07;;;;;;;22.03;53.98;102609.53;4986845;28;20093;-42
2023/09/30 01:03:50;;;;;;;12.25;7.07;;;;;;;22.02;53.92;102610.50;4988020;28;20038;-42
2023/09/30 01:06:17;;;;;;;11.93;7.38;;;;;;;22.02;53.84;102599.69;4987610;28;20114;-42
2023/09/30 01:08:44;;;;;;;10.68;7.22;;;;;;;21.99;53.98;102608.09;4986757;28;20057;-43
2023/09/30 01:11:12;;;;;;;8.18;5.65;;;;;;;22.00;53.77;102617.03;5015633;28;20082;-43
2023/09/30 01:13:39;;;;;;;11.13;7.00;;;;;;;21.99;54.17;102612.59;4980909;28;20054;-43
2023/09/30 01:16:06;;;;;;;10.85;6.47;;;;;;;21.98;53.93;102625.25;4982367;28;20058;-42
2023/09/30 01:18:33;;;;;;;11.65;6.95;;;;;;;21.97;53.82;102641.59;4985159;28;20047;-42
2023/09/30 01:21:03;;;;;;;11.18;7.30;;;;;;;21.96;53.76;102635.34;4981933;28;20057;-42
2023/09/30 01:23:35;;;;;;;10.85;7.35;;;;;;;21.95;54.06;102630.94;4981079;28;20461;-42
2023/09/30 01:26:08;;;;;;;10.80;6.88;;;;;;;21.94;53.93;102626.53;4986194;28;20047;-42
2023/09/30 01:28:35;;;;;;;;;;;;;;;21.92;53.96;102625.81;4985081;28;20054;-42
2023/09/30 01:31:02;;;;;;;10.90;6.40;;;;;;;21.95;53.88;102628.25;4984397;28;20020;-42
2023/09/30 01:33:28;;;;;;;12.20;6.90;;;;;;;21.93;53.99;102630.22;4984713;28;20050;-42
2023/09/30 01:35:55;;;;;;;10.43;6.43;;;;;;;21.92;54.06;102639.31;4987467;28;20054;-43
2023/09/30 01:38:22;;;;;;;12.73;6.35;;;;;;;21.90;54.20;102628.63;4988542;28;20058;-43
2023/09/30 01:40:49;;;;;;;9.65;6.00;;;;;;;21.89;54.25;102621.53;4984994;28;20133;-42
2023/09/30 01:43:16;;;;;;;11.73;6.65;;;;;;;21.88;54.10;102627.09;4986780;28;20886;-42
2023/09/30 01:45:43;;;;;;;9.30;5.93;;;;;;;21.86;53.93;102619.09;4985984;28;20667;-42
2023/09/30 01:48:10;;;;;;;9.13;5.78;;;;;;;21.85;53.96;102614.69;4980951;28;20050;-42
2023/09/30 01:50:38;;;;;;;11.50;6.60;;;;;;;21.85;54.16;102603.03;4983693;28;20101;-42
2023/09/30 01:53:06;;;;;;;10.18;6.40;;;;;;;21.85;53.88;102597.66;4982897;28;20046;-42
2023/09/30 01:55:33;;;;;;;11.70;6.25;;;;;;;21.83;53.95;102591.50;4981558;28;20075;-43
2023/09/30 01:58:00;;;;;;;10.15;5.75;;;;;;;21.83;53.73;102591.50;4986933;28;20046;-43
2023/09/30 02:00:28;;;;;;;9.20;5.93;;;;;;;21.82;54.13;102604.16;4988782;28;20055;-43
2023/09/30 02:02:56;;;;;;;10.63;6.07;;;;;;;21.82;53.80;102614.97;4987596;28;20120;-43
2023/09/30 02:05:23;;;;;;;10.88;6.15;;;;;;;21.82;53.98;102619.50;4984229;28;20083;-43
2023/09/30 02:07:50;;;;;;;8.88;5.53;;;;;;;21.83;53.91;102623.91;4986159;28;20054;-43
2023/09/30 02:10:18;;;;;;;8.82;5.93;;;;;;;21.81;53.90;102618.66;4977770;28;20471;-42
2023/09/30 02:12:45;;;;;;;9.48;5.63;;;;;;;21.80;54.11;102625.06;4984534;28;20338;-43
2023/09/30 02:15:13;;;;;;;10.82;6.07;;;;;;;21.79;54.23;102626.06;4985759;28;20052;-43
2023/09/30 02:17:45;;;;;;;8.00;5.57;;;;;;;21.79;54.18;102625.16;4982731;28;20134;-43
2023/09/30 02:20:15;;;;;;;8.57;5.57;;;;;;;21.78;53.89;102628.88;4980028;28;20046;-43
2023/09/30 02:22:44;;;;;;;9.52;5.70;;;;;;;21.77;53.94;102633.41;4982999;28;20078;-43
2023/09/30 02:25:12;;;;;;;7.82;5.13;;;;;;;21.76;53.96;102618.22;4981691;28;20055;-43
2023/09/30 02:27:41;;;;;;;9.48;5.57;;;;;;;21.77;53.83;102619.06;4979786;28;20130;-43
2023/09/30 02:30:15;;;;;;;9.98;5.32;;;;;;;21.75;53.90;102612.94;4981859;28;20102;-43
2023/09/30 02:32:45;;;;;;;10.65;5.70;;;;;;;21.75;53.82;102607.53;4981579;28;20047;-43
2023/09/30 02:35:15;;;;;;;7.47;4.93;;;;;;;21.73;53.98;102606.84;4979086;28;20423;-43
2023/09/30 02:37:41;;;;;;;8.00;5.18;;;;;;;21.72;53.76;102608.69;4985769;28;20054;-43
2023/09/30 02:40:11;;;;;;;9.65;5.55;;;;;;;21.72;53.81;102608.69;4984120;28;20054;-43
2023/09/30 02:42:38;;;;;;;8.98;5.50;;;;;;;21.71;54.13;102606.09;4982184;28;20089;-43
2023/09/30 02:45:07;;;;;;;9.23;5.57;;;;;;;21.69;54.01;102599.00;4982773;28;20046;-43
2023/09/30 02:47:35;;;;;;;10.27;5.30;;;;;;;21.68;54.05;102605.41;4983997;28;20125;-43
2023/09/30 02:50:04;;;;;;;8.20;5.10;;;;;;;21.68;53.81;102605.41;4982648;28;20125;-42
2023/09/30 02:52:31;;;;;;;7.97;4.93;;;;;;;21.68;54.28;102601.84;4981972;28;20331;-43
2023/09/30 02:54:58;;;;;;;8.77;4.90;;;;;;;21.68;53.80;102608.09;4983959;28;20338;-43
2023/09/30 02:57:27;;;;;;;7.55;5.00;;;;;;;21.68;54.04;102607.25;4986601;28;20042;-42
2023/09/30 02:59:54;;;;;;;6.18;4.25;;;;;;;21.66;53.93;102593.88;4985925;28;20054;-42
2023/09/30 03:02:23;;;;;;;7.68;4.43;;;;;;;21.66;53.93;102604.66;4980908;28;20109;-42
2023/09/30 03:04:51;;;;;;;8.00;4.65;;;;;;;21.66;54.30;102601.97;4983167;28;20058;-42
2023/09/30 03:07:19;;;;;;;7.38;4.50;;;;;;;21.64;54.16;102595.84;4988151;28;20046;-42
2023/09/30 03:09:46;;;;;;;8.13;5.13;;;;;;;21.65;53.94;102599.41;4985558;28;20427;-43
2023/09/30 03:12:14;;;;;;;6.97;4.90;;;;;;;21.64;54.14;102600.41;5014418;28;20046;-43
2023/09/30 03:14:40;;;;;;;9.02;4.95;;;;;;;21.63;54.03;102604.94;4980962;28;20447;-42
2023/09/30 03:17:11;;;;;;;7.03;4.35;;;;;;;21.63;54.05;102604.09;4981875;28;20132;-42
2023/09/30 03:19:38;;;;;;;7.75;4.78;;;;;;;21.62;53.95;102597.81;4978229;28;20051;-42
2023/09/30 03:22:10;;;;;;;6.90;4.45;;;;;;;21.61;53.96;102590.72;4983390;28;20378;-43
2023/09/30 03:24:39;;;;;;;7.05;4.50;;;;;;;21.62;54.11;102596.97;4985419;28;20046;-42
2023/09/30 03:27:07;;;;;;;6.97;4.30;;;;;;;21.62;53.95;102599.66;4984518;28;20464;-42
2023/09/30 03:29:38;;;;;;;6.97;4.35;;;;;;;21.61;54.13;102589.88;4986704;28;20050;-42
2023/09/30 03:32:05;;;;;;;6.53;3.97;;;;;;;21.61;54.00;102590.72;4985135;28;20054;-42
2023/09/30 03:34:31;;;;;;;8.02;4.00;;;;;;;21.60;54.06;102593.56;4984265;28;20465;-42
2023/09/30 03:37:01;;;;;;;6.40;4.20;;;;;;;21.61;54.09;102600.66;4987475;28;20046;-42
2023/09/30 03:39:27;;;;;;;6.68;4.03;;;;;;;21.60;54.16;102598.97;4992375;28;20057;-42
2023/09/30 03:41:56;;;;;;;7.15;4.28;;;;;;;21.59;53.84;102606.22;4991961;28;20047;-43
2023/09/30 03:44:25;;;;;;;7.53;4.70;;;;;;;21.58;54.03;102601.78;4984660;28;20050;-43
2023/09/30 03:46:52;;;;;;;8.00;4.15;;;;;;;21.59;54.25;102599.97;4982955;28;20082;-42
2023/09/30 03:49:19;;;;;;;6.78;4.10;;;;;;;21.58;54.09;102601.78;4981433;28;20587;-42
2023/09/30 03:51:46;;;;;;;6.93;4.30;;;;;;;21.57;54.09;102597.38;4982454;28;20054;-42
2023/09/30 03:54:13;;;;;;;5.82;3.67;;;;;;;21.57;54.02;102594.69;4984398;28;20498;-43
2023/09/30 03:56:41;;;;;;;6.25;3.88;;;;;;;21.56;54.04;102601.06;4985057;28;20062;-43
2023/09/30 03:59:08;;;;;;;8.10;4.45;;;;;;;21.56;54.12;102606.47;4985566;28;20058;-42
2023/09/30 04:01:39;;;;;;;5.90;3.70;;;;;;;21.55;54.03;102607.47;4984629;28;20043;-43
2023/09/30 04:04:08;;;;;;;5.22;3.67;;;;;;;;;;4982986;28;20353;-43
2023/09/30 04:06:38;;;;;;;5.45;3.97;;;;;;;21.54;54.31;102599.50;4986226;28;20133;-43
2023/09/30 04:09:09;;;;;;;5.57;3.92;;;;;;;21.54;54.27;102596.78;4987739;28;20058;-43
2023/09/30 04:11:37;;;;;;;6.00;3.72;;;;;;;21.53;54.56;102595.94;4989391;28;20398;-43
2023/09/30 04:14:07;;;;;;;5.90;3.35;;;;;;;21.53;53.91;102601.34;4988305;28;20098;-43
2023/09/30 04:16:35;;;;;;;6.63;3.92;;;;;;;21.52;54.38;102599.63;4986341;28;20403;-42
2023/09/30 04:19:02;;;;;;;6.82;3.75;;;;;;;21.52;54.11;102599.63;4985821;28;20109;-43
2023/09/30 04:21:33;;;;;;;6.60;3.60;;;;;;;21.51;54.29;102603.31;4985363;28;20055;-42
2023/09/30 04:24:00;;;;;;;5.68;3.72;;;;;;;21.51;54.20;102606.03;4984121;28;20050;-43
2023/09/30 04:26:27;;;;;;;6.10;3.80;;;;;;;21.50;54.17;102606.13;4984544;28;20083;-42
2023/09/30 04:28:54;;;;;;;5.45;3.47;;;;;;;21.50;54.36;102614.22;4986917;28;20130;-42
2023/09/30 04:31:23;;;;;;;6.20;3.47;;;;;;;21.49;53.98;102610.69;4986623;28;20082;-44
2023/09/30 04:33:53;;;;;;;6.00;3.53;;;;;;;21.49;54.36;102613.38;4988394;28;20046;-44
2023/09/30 04:36:21;;;;;;;6.60;3.42;;;;;;;21.48;54.20;102619.78;4984092;28;20100;-43
2023/09/30 04:38:48;;;;;;;5.38;3.60;;;;;;;21.48;53.88;102613.53;4982712;28;20058;-44
2023/09/30 04:41:15;;;;;;;5.13;3.35;;;;;;;21.46;54.42;102624.44;4987165;28;20498;-43
2023/09/30 04:43:43;;;;;;;5.28;3.38;;;;;;;21.47;54.06;102622.59;4989896;28;20038;-44
2023/09/30 04:46:12;;;;;;;5.40;3.75;;;;;;;21.47;54.16;102611.78;4984895;28;20398;-44
2023/09/30 04:48:40;;;;;;;6.38;3.42;;;;;;;21.46;54.16;102620.88;4982909;28;20104;-44
2023/09/30 04:51:08;;;;;;;6.07;3.72;;;;;;;21.46;54.17;102621.72;4982376;28;20105;-44
2023/09/30 04:53:35;;;;;;;5.55;3.50;;;;;;;21.45;54.21;102630.81;4984342;28;20042;-42
2023/09/30 04:56:03;;;;;;;4.68;3.22;;;;;;;21.44;54.45;102631.81;4983720;28;20074;-42
2023/09/30 04:58:29;;;;;;;6.55;3.53;;;;;;;21.43;54.42;102635.50;4982462;28;20333;-42
2023/09/30 05:00:56;;;;;;;5.95;3.28;;;;;;;21.43;54.23;102633.66;5014126;28;20046;-42
2023/09/30 05:03:24;;;;;;;5.07;3.45;;;;;;;21.42;54.28;102633.78;4985533;28;20351;-44
2023/09/30 05:05:53;;;;;;;5.07;3.13;;;;;;;21.42;54.29;102633.78;4985824;28;20054;-42
2023/09/30 05:08:20;;;;;;;4.90;2.88;;;;;;;21.41;54.19;102632.09;4984955;28;20454;-43
2023/09/30 05:10:46;;;;;;;5.32;3.17;;;;;;;21.41;54.39;102629.38;4982172;28;20129;-44
2023/09/30 05:13:14;;;;;;;6.13;3.58;;;;;;;21.41;54.09;102632.09;4984598;28;20127;-43
2023/09/30 05:15:41;;;;;;;4.43;2.75;;;;;;;21.40;54.18;102638.47;4983525;28;20403;-42
2023/09/30 05:18:10;;;;;;;5.13;3.05;;;;;;;21.39;54.49;102634.91;4990219;28;20050;-42
2023/09/30 05:20:38;;;;;;;5.72;3.08;;;;;;;21.39;54.10;102634.06;4987227;28;20486;-42
2023/09/30 05:23:07;;;;;;;6.65;3.40;;;;;;;21.38;54.30;102638.59;4983577;28;20642;-42
2023/09/30 05:25:33;;;;;;;7.13;3.30;;;;;;;21.38;54.21;102633.19;4980909;28;20124;-42
2023/09/30 05:28:00;;;;;;;6.30;3.55;;;;;;;21.37;54.37;102630.63;4985119;28;20157;-42
2023/09/30 05:30:27;;;;;;;5.18;2.90;;;;;;;21.36;54.39;102637.88;4982869;28;20046;-42
2023/09/30 05:32:54;;;;;;;5.25;3.13;;;;;;;21.37;54.40;102636.03;4983023;28;20403;-42
2023/09/30 05:35:22;;;;;;;5.45;3.03;;;;;;;21.35;54.67;102640.72;4981536;28;20057;-43
2023/09/30 05:37:52;;;;;;;4.70;2.85;;;;;;;21.35;54.51;102648.81;4984217;28;20061;-43
2023/09/30 05:40:21;;;;;;;6.00;3.05;;;;;;;21.34;54.11;102647.94;4987401;28;20054;-43
2023/09/30 05:42:50;;;;;;;5.25;2.90;;;;;;;21.34;54.44;102641.69;4985771;28;20123;-43
2023/09/30 05:45:17;;;;;;;4.78;2.70;;;;;;;21.34;54.27;102642.53;4981164;28;20054;-43
2023/09/30 05:47:46;;;;;;;5.53;2.95;;;;;;;21.33;54.21;102642.69;4983213;28;20450;-42
2023/09/30 05:50:23;;;;;;;4.90;2.65;;;;;;;21.32;54.11;102638.25;4979504;28;20046;-42
2023/09/30 05:52:51;;;;;;;4.47;2.80;;;;;;;21.31;54.22;102640.09;4983524;28;20136;-43
2023/09/30 05:55:20;;;;;;;4.13;2.50;;;;;;;21.31;54.41;102636.53;4982182;28;20565;-42
2023/09/30 05:57:50;;;;;;;4.32;2.65;;;;;;;21.30;54.46;102637.50;4981029;28;20086;-41
2023/09/30 06:00:22;;;;;;;6.35;3.33;;;;;;;21.30;54.17;102649.16;4983170;28;20047;-42
2023/09/30 06:02:51;;;;;;;5.45;2.90;;;;;;;21.29;54.40;102657.38;4980244;28;20454;-42
2023/09/30 06:05:22;;;;;;;5.15;3.00;;;;;;;21.30;54.21;102653.69;4979836;28;20101;-42
2023/09/30 06:07:49;;;;;;;3.78;2.75;;;;;;;21.29;54.33;102646.59;4980303;28;20328;-42
2023/09/30 06:10:18;;;;;;;4.78;2.72;;;;;;;21.28;54.26;102639.50;4981771;28;20065;-42
2023/09/30 06:12:54;;;;;;;5.57;2.65;;;;;;;21.28;54.46;102642.19;4985108;28;20053;-43
2023/09/30 06:15:25;;;;;;;5.20;2.55;;;;;;;21.28;53.89;102642.19;4980516;28;20136;-42
2023/09/30 06:17:53;;;;;;;4.65;2.80;;;;;;;21.28;54.60;102645.75;4983647;28;20046;-43
2023/09/30 06:20:22;;;;;;;4.45;2.75;;;;;;;21.28;54.58;102650.28;4985979;28;20146;-42
2023/09/30 06:22:49;;;;;;;6.60;3.08;;;;;;;21.28;54.07;102644.88;4985290;28;20346;-42
2023/09/30 06:25:17;;;;;;;4.88;2.60;;;;;;;21.27;53.98;102654.81;4982314;28;20142;-41
2023/09/30 06:27:44;;;;;;;4.72;2.70;;;;;;;21.28;54.60;102663.78;4982579;28;20054;-42
2023/09/30 06:30:13;;;;;;;4.45;2.50;;;;;;;21.28;54.32;102663.78;4982467;28;20046;-42
2023/09/30 06:32:40;;;;;;;4.22;2.70;;;;;;;21.28;54.50;102670.00;4984089;28;20047;-42
2023/09/30 06:35:10;;;;;;;4.38;2.70;;;;;;;21.27;54.21;102676.41;4980574;28;20062;-42
2023/09/30 06:37:40;;;;;;;4.75;2.67;;;;;;;21.28;54.30;102679.94;4981711;28;20061;-42
2023/09/30 06:40:08;;;;;;;6.82;2.67;;;;;;;21.29;54.29;102682.50;4980850;28;20047;-42
2023/09/30 06:42:35;;;;;;;4.68;2.75;;;;;;;21.28;54.41;102688.03;4980144;28;20351;-43
2023/09/30 06:45:05;;;;;;;3.90;2.58;;;;;;;21.28;54.43;102685.34;4986370;28;20058;-43
2023/09/30 06:47:41;;;;;;;5.55;3.00;;;;;;;21.27;54.35;102683.63;4985570;28;20100;-43
2023/09/30 06:50:12;;;;;;;4.53;2.38;;;;;;;21.28;54.25;102685.34;4985218;28;20061;-43
2023/09/30 06:52:40;;;;;;;5.13;2.70;;;;;;;21.28;54.14;102691.59;4980455;28;20053;-43
2023/09/30 06:55:08;;;;;;;5.93;2.85;;;;;;;21.28;54.31;102696.13;4984075;28;20077;-43
2023/09/30 06:57:36;;;;;;;4.85;2.60;;;;;;;21.28;54.18;102696.13;4989396;28;20155;-43
2023/09/30 07:00:11;;;;;;;5.55;3.08;;;;;;;21.27;54.51;102697.97;4983771;28;20145;-43
2023/09/30 07:02:40;;;;;;;5.35;2.35;;;;;;;21.29;54.07;102703.22;4983502;28;20137;-42
2023/09/30 07:05:07;;;;;;;5.13;2.35;;;;;;;21.30;54.47;102699.53;4981891;28;20081;-43
2023/09/30 07:07:34;;;;;;;4.30;2.50;;;;;;;21.30;54.71;102704.94;4981474;28;20059;-42
2023/09/30 07:10:01;;;;;;;4.85;2.30;;;;;;;21.30;54.17;102708.47;4986216;28;20046;-42
2023/09/30 07:12:27;;;;;;;4.20;2.38;;;;;;;21.30;54.53;102716.56;4982779;28;20585;-42
2023/09/30 07:14:54;;;;;;;5.35;2.58;;;;;;;21.32;54.52;102721.84;4983179;28;20150;-42
2023/09/30 07:17:21;;;;;;;4.78;2.80;;;;;;;21.31;54.26;102718.31;4981010;28;20116;-42
2023/09/30 07:19:48;;;;;;;5.60;3.15;;;;;;;21.34;54.18;102722.59;4988305;28;20089;-42
2023/09/30 07:22:15;;;;;;;5.25;3.05;;;;;;;21.33;54.25;102718.19;4984335;28;20060;-42
2023/09/30 07:24:49;;;;;;;4.65;2.53;;;;;;;21.34;53.99;102704.56;4984933;28;20049;-41
2023/09/30 07:27:16;;;;;;;4.63;2.50;;;;;;;21.35;54.07;102714.41;4985874;28;20145;-42
2023/09/30 07:29:53;;;;;;;5.65;2.67;;;;;;;21.36;54.42;102737.69;4980224;28;20094;-42
2023/09/30 07:32:23;;;;;;;5.88;2.60;;;;;;;21.38;53.95;102738.41;4986902;28;20079;-42
2023/09/30 07:34:50;;;;;;;4.22;2.42;;;;;;;21.39;54.15;102728.47;4987078;28;20411;-42
2023/09/30 07:37:17;;;;;;;5.10;2.80;;;;;;;21.39;54.36;102726.63;4985392;28;20053;-42
2023/09/30 07:39:45;;;;;;;5.07;2.92;;;;;;;21.41;53.97;102746.22;4980210;28;20042;-42
2023/09/30 07:42:14;;;;;;;5.65;2.67;;;;;;;21.43;54.19;102740.72;4980949;28;20054;-42
2023/09/30 07:44:41;;;;;;;5.40;3.03;;;;;;;21.45;53.73;102752.22;4986007;28;20432;-42
2023/09/30 07:47:08;;;;;;;5.55;2.95;;;;;;;21.46;53.88;102745.84;4983726;28;20146;-40
2023/09/30 07:49:35;;;;;;;8.43;3.50;;;;;;;21.48;53.99;102738.50;4986160;28;20076;-40
2023/09/30 07:52:03;;;;;;;7.72;3.75;;;;;;;21.49;53.69;102742.03;5022823;28;20050;-42
2023/09/30 07:54:30;;;;;;;7.90;4.43;;;;;;;21.50;53.94;102739.19;4990683;28;20137;-41
2023/09/30 07:56:58;;;;;;;7.90;4.45;;;;;;;21.52;54.21;102737.25;4988407;28;20473;-42
2023/09/30 07:59:26;;;;;;;10.38;5.45;;;;;;;21.54;53.84;102729.00;4983067;28;20438;-42
2023/09/30 08:01:53;;;;;;;8.00;4.63;;;;;;;21.53;53.79;102728.16;4977455;28;20061;-41
2023/09/30 08:04:20;;;;;;;9.10;5.25;;;;;;;21.55;53.96;102723.50;4985557;28;20046;-41
2023/09/30 08:06:47;;;;;;;8.02;4.95;;;;;;;21.56;53.88;102722.50;4984138;28;20430;-41
2023/09/30 08:09:14;;;;;;;9.05;5.43;;;;;;;21.57;53.92;102723.34;4988876;28;20061;-43
2023/09/30 08:11:40;;;;;;;9.23;5.45;;;;;;;21.58;54.07;102712.41;4983467;28;20316;-41
2023/09/30 08:14:09;;;;;;;9.93;5.28;;;;;;;21.59;53.84;102713.28;4985265;28;20118;-42
2023/09/30 08:16:36;;;;;;;9.77;5.13;;;;;;;21.59;53.91;102711.44;4981229;28;20054;-42
2023/09/30 08:19:05;;;;;;;8.15;4.95;;;;;;;21.60;54.15;102702.34;4982771;28;20047;-42
2023/09/30 08:21:31;;;;;;;9.95;5.18;;;;;;;21.62;54.13;102700.38;4978633;28;20061;-42
2023/09/30 08:23:59;;;;;;;8.45;5.20;;;;;;;21.64;53.97;102711.03;4990763;28;20433;-42
2023/09/30 08:26:26;;;;;;;8.60;5.50;;;;;;;21.65;54.06;102708.22;4988348;28;20430;-42
2023/09/30 08:28:52;;;;;;;7.45;5.10;;;;;;;21.67;53.86;102717.03;4985639;28;20046;-42
2023/09/30 08:31:19;;;;;;;9.70;5.10;;;;;;;21.68;54.12;102718.75;4984825;28;20126;-41
2023/09/30 08:33:46;;;;;;;11.05;5.85;;;;;;;21.70;54.08;102713.19;4981559;28;20046;-42
2023/09/30 08:36:13;;;;;;;8.93;5.25;;;;;;;21.73;53.73;102717.50;4981386;28;20062;-41
2023/09/30 08:38:41;;;;;;;10.57;6.22;;;;;;;21.74;53.76;102714.66;4988492;28;20065;-42
2023/09/30 08:41:08;;;;;;;10.50;6.15;;;;;;;21.76;53.79;102723.47;4984218;28;20054;-42
2023/09/30 08:43:39;;;;;;;10.88;6.70;;;;;;;21.78;53.85;102726.03;4981221;28;20043;-42
2023/09/30 08:46:07;;;;;;;13.57;6.43;;;;;;;21.80;53.99;102722.22;4982589;28;20054;-42
2023/09/30 08:48:34;;;;;;;12.20;6.75;;;;;;;21.82;53.84;102719.38;5017601;28;20400;-42
2023/09/30 08:51:02;;;;;;;10.75;6.22;;;;;;;21.84;53.55;102725.53;4985375;28;20054;-42
2023/09/30 08:53:29;;;;;;;9.80;6.28;;;;;;;21.85;53.91;102724.53;4985775;28;20433;-44
2023/09/30 08:55:59;;;;;;;12.27;6.30;;;;;;;21.87;53.95;102731.50;4984091;28;20057;-43
2023/09/30 08:58:32;;;;;;;10.65;5.22;;;;;;;21.89;53.83;102734.91;4990745;28;20437;-42
2023/09/30 09:00:58;;;;;;;10.82;5.40;;;;;;;21.91;53.57;102738.34;4984147;28;20349;-42
2023/09/30 09:03:27;;;;;;;11.25;5.38;;;;;;;21.92;53.68;102744.59;4982510;28;20058;-42
2023/09/30 09:05:59;;;;;;;10.05;5.70;;;;;;;21.92;54.15;102756.25;4979797;28;20117;-42
2023/09/30 09:08:26;;;;;;;7.75;4.95;;;;;;;21.96;53.94;102761.41;4986325;28;20051;-42
2023/09/30 09:10:58;;;;;;;14.27;7.10;;;;;;;21.98;53.89;102772.91;4979448;28;20070;-42
2023/09/30 09:13:25;;;;;;;10.05;6.05;;;;;;;22.00;54.02;102765.56;4984868;28;20043;-45
2023/09/30 09:16:08;;;;;;;12.85;6.80;;;;;;;22.02;54.21;102777.91;4984275;28;20047;-43
2023/09/30 09:18:36;;;;;;;10.23;5.93;;;;;;;22.06;53.78;102779.34;4983403;28;20057;-42
2023/09/30 09:21:14;;;;;;;11.63;6.22;;;;;;;22.09;53.78;102781.78;4983360;28;20136;-42
2023/09/30 09:23:45;;;;;;;13.85;6.75;;;;;;;22.13;53.79;102788.66;4984935;28;20053;-44
2023/09/30 09:26:24;;;;;;;12.20;6.25;;;;;;;22.17;53.60;102789.25;4979249;28;20371;-43
2023/09/30 09:28:56;;;;;;;13.15;6.22;;;;;;;22.23;53.22;102794.16;4987336;28;20053;-42
2023/09/30 09:31:34;;;;;;;10.80;5.95;;;;;;;22.27;53.33;102792.00;4984835;28;20054;-43
2023/09/30 09:34:13;;;;;;;10.18;5.55;;;;;;;22.34;53.62;102785.06;4986816;28;20422;-43
2023/09/30 09:36:42;;;;;;;12.80;5.53;;;;;;;22.38;53.19;102781.13;4980994;28;20450;-43
2023/09/30 09:39:12;;;;;;;9.75;5.32;;;;;;;22.41;53.16;102788.97;4983079;28;20137;-43
2023/09/30 09:41:52;;;;;;;10.27;5.28;;;;;;;22.45;53.35;102793.09;5058200;28;20797;-33
2023/09/30 09:44:21;;;;;;;11.93;4.60;;;;;;;22.47;52.92;102785.69;5059737;28;20522;-33
2023/09/30 09:46:50;;;;;;;10.93;4.57;;;;;;;22.51;52.71;102795.25;5057069;28;20573;-34
2023/09/30 09:49:18;;;;;;;10.27;5.03;;;;;;;22.54;52.66;102792.28;5057563;28;20073;-35
2023/09/30 09:51:47;;;;;;;9.73;4.63;;;;;;;22.57;53.06;102794.72;5058112;28;20052;-34
2023/09/30 09:54:15;;;;;;;11.23;4.53;;;;;;;22.59;52.85;102792.75;5057874;28;20052;-34
2023/09/30 09:56:44;;;;;;;10.43;4.85;;;;;;;22.62;52.47;102792.44;5058345;28;20060;-34
2023/09/30 09:59:12;;;;;;;9.75;4.78;;;;;;;22.63;52.54;102799.59;5059304;28;20446;-34
2023/09/30 10:01:41;;;;;;;12.95;5.03;;;;;;;22.64;52.30;102797.75;5060860;28;20140;-34
2023/09/30 10:04:10;;;;;;;7.65;4.07;;;;;;;22.66;52.44;102801.16;5057729;28;20054;-34
2023/09/30 10:06:39;;;;;;;10.82;4.18;;;;;;;22.69;52.39;102802.72;5060516;28;20048;-34
2023/09/30 10:09:10;;;;;;;11.55;4.47;;;;;;;22.71;52.33;102785.34;5057340;28;20055;-34
2023/09/30 10:11:39;;;;;;;11.82;4.07;;;;;;;22.75;52.53;102780.53;5057805;28;20052;-34
2023/09/30 10:14:12;;;;;;;9.23;3.95;;;;;;;22.78;52.20;102774.88;5059578;28;20061;-34
2023/09/30 10:16:46;;;;;;;11.30;4.68;;;;;;;22.81;52.19;102774.59;5054925;28;20053;-34
2023/09/30 10:19:19;;;;;;;10.55;4.50;;;;;;;22.84;52.71;102769.75;5057738;28;20136;-32
2023/09/30 10:22:19;;;;;;;11.13;4.22;;;;;;;22.87;52.46;102765.91;5058857;28;20041;-32
2023/09/30 10:24:47;;;;;;;14.10;4.95;;;;;;;22.93;52.48;102770.81;5060060;28;20045;-33
2023/09/30 10:27:32;;;;;;;10.77;4.53;;;;;;;22.94;51.95;102764.41;5058384;28;20044;-33
2023/09/30 10:29:59;;;;;;;11.05;4.20;;;;;;;22.98;52.42;102760.41;5061095;28;20056;-32
2023/09/30 10:32:51;;;;;;;7.80;3.88;;;;;;;22.99;52.33;102758.56;5060851;28;20391;-32
2023/09/30 10:35:38;;;;;;;8.02;3.65;;;;;;;23.01;51.91;102748.47;5060404;28;20045;-33
2023/09/30 10:38:23;;;;;;;10.80;4.75;;;;;;;23.03;52.65;102754.59;5059219;28;20434;-33
2023/09/30 10:40:52;;;;;;;11.25;5.10;;;;;;;23.06;52.46;102755.16;5053427;28;20053;-33
2023/09/30 10:43:33;;;;;;;18.83;5.25;;;;;;;23.06;52.37;102757.88;5051818;28;20131;-33
2023/09/30 10:46:01;;;;;;;10.57;4.40;;;;;;;23.06;51.79;102738.94;5058036;28;20048;-33
2023/09/30 10:48:27;;;;;;;11.73;4.20;;;;;;;23.06;51.45;102743.50;5054401;28;20447;-33
2023/09/30 10:50:56;;;;;;;11.90;3.92;;;;;;;23.04;51.06;102751.75;5056557;28;20056;-33
2023/09/30 10:53:23;;;;;;;9.38;4.20;;;;;;;23.04;51.39;102756.31;5045765;28;20514;-33
2023/09/30 10:56:00;;;;;;;10.00;3.90;;;;;;;23.01;51.52;102748.47;5038454;28;20467;-33
2023/09/30 10:59:02;;;;;;;10.50;3.95;;;;;;;22.98;51.80;102748.75;5049311;28;20048;-33
2023/09/30 11:01:34;;;;;;;11.15;3.97;;;;;;;23.00;51.79;102752.19;5028117;28;20319;-33
2023/09/30 11:04:05;;;;;;;13.65;4.05;;;;;;;22.99;51.47;102745.03;5044512;28;20065;-33
2023/09/30 11:06:32;;;;;;;13.93;4.32;;;;;;;22.97;51.65;102747.91;5047575;28;20330;-33
2023/09/30 11:09:01;;;;;;;11.82;4.22;;;;;;;22.96;51.47;102743.50;5043460;28;20053;-33
2023/09/30 11:11:42;;;;;;;10.32;3.63;;;;;;;22.95;52.11;102739.06;5041970;28;20083;-33
2023/09/30 11:14:21;;;;;;;9.52;3.80;;;;;;;22.94;51.77;102744.63;5041840;28;20353;-33
2023/09/30 11:16:53;;;;;;;12.05;4.13;;;;;;;22.94;51.67;102742.75;5040380;28;20140;-33
2023/09/30 11:19:21;;;;;;;11.88;3.80;;;;;;;22.94;51.35;102740.06;5040112;28;20083;-33
2023/09/30 11:21:55;;;;;;;13.13;4.03;;;;;;;22.92;51.76;102731.25;5040182;28;20052;-33
2023/09/30 11:24:21;;;;;;;17.58;3.92;;;;;;;22.93;52.20;102727.53;5039533;28;20073;-33
2023/09/30 11:26:53;;;;;;;9.05;3.47;;;;;;;22.93;51.81;102703.19;5040579;28;20103;-33
2023/09/30 11:29:20;;;;;;;8.75;3.10;;;;;;;22.94;51.56;102710.31;5049146;28;20168;-33
2023/09/30 11:31:50;;;;;;;13.07;3.63;;;;;;;22.93;51.45;102711.31;5044916;28;20088;-33